Winnsboro, SC (29180)

12:40 PM EDT on April 28, 2017 (GMT -0400)
cobblestone park | | Change Station
Active Advisory: Flood Warning

Elev 510 ft 34.22 °N, 81.00 °W | Updated 21 seconds ago

Mostly Cloudy
Mostly Cloudy
83.5 °F
Feels Like 86 °F
N
2.2
Wind Variable Wind from ESE

Today
High -- | Low -- °F
--% Chance of Precip.
Yesterday
High -- | Low -- °F
Precip. -- in
Pressure 30.08 in
Visibility 10.0 miles
Clouds Scattered Clouds 2800 ft
Mostly Cloudy 3300 ft
Heat Index 86 °F
Dew Point 66 °F
Humidity 55%
Rainfall 0.00 in
Snow Depth Not available.
6:37 AM 8:06 PM
Waxing Crescent, 7% visible
METAR KCUB 281553Z AUTO VRB06KT 10SM SCT028 BKN033 28/20 A3009 RMK AO2 SLP185 T02830200
Pressure 30.08 in
Visibility 10.0 miles
Clouds Scattered Clouds 2800 ft
Mostly Cloudy 3300 ft
Heat Index 86 °F
Dew Point 66 °F
Humidity 55%
Rainfall 0.00 in
Snow Depth Not available.
6:37 AM 8:06 PM
Waxing Crescent, 7% visible
METAR KCUB 281553Z AUTO VRB06KT 10SM SCT028 BKN033 28/20 A3009 RMK AO2 SLP185 T02830200

Get Your Daily Forecast Email!

Thanks for signing up!

Be on the lookout for a verification email in your inbox.

You'll start receiving severe weather alerts in your inbox..

×

10-Day Weather Forecast

Almanac

Astronomy

Apr. 28, 2017 Rise Set
Actual Time
Civil Twilight
Nautical Twilight
Astronomical Twilight
Moon
Length of Visible Light
Length of Day
Tomorrow will be .
, % of the Moon is Illuminated

Today's Extremes

State Highs State Lows

Community

WunderPhotos

WunderBlog® & News

Nearby

Air Quality

  Air Quality AQ Index Pollutant
Not available.

Snow Depth

Station Depth Elevation

Earthquake Activity

City Distance Mag. Time & Date
Minimum magnitude displayed is 2.5.

Coastal Water Temperatures

Place Temperature

Stations

Nearby Weather Stations

Station Location Temp. Windchill Dew Point Humidity Wind Precip. Elev Updated Type
                   

Watches & Warnings

Flood Warning
Issued: 10:28 AM EDT Apr. 28, 2017 – National Weather Service

The Flood Warning extended for
the Wateree river at Lake Wateree.
* Until Sunday evening... or until the warning is cancelled.
* At 9 am Friday the stage was 100.4 feet.
* Flood stage is 100.0 feet.
* Minor flooding is occurring and minor flooding is forecast.
* Forecast... the river will continue to fall... going below flood
stage by Saturday evening.
* At 100.4 feet... the water begins to overflow one or more marinas
along the northwest shores. The piers on the wildlife Road bridge
over Singleton creek become submerged.


Lat... Lon 3450 8085 3432 8063 3428 8075 3447 8098